Time;durP1;ratioP1;P1;durP2;ratioP2;P2;SDS_P1;SDS_P2;PMS_P1;PMS_P2;Temp;Humidity;BMP_temperature;BMP_pressure;BME280_temperature;BME280_humidity;BME280_pressure;Samples;Min_cycle;Max_cycle;Signal;HPM_P1;HPM_P2
2023/04/11 00:00:19;;;;;;;0.50;0.50;;;;;;;12.05;51.69;96485.25;29396;457;63008;-55
2023/04/11 00:00:52;;;;;;;0.50;0.50;;;;;;;12.03;51.63;96477.41;29396;212;63005;-57
2023/04/11 00:01:24;;;;;;;0.50;0.50;;;;;;;12.02;51.76;96475.00;29396;373;63009;-56
2023/04/11 00:01:55;;;;;;;0.50;0.50;;;;;;;12.00;52.43;96488.91;29396;275;63005;-56
2023/04/11 00:02:26;;;;;;;0.40;0.40;;;;;;;11.99;51.93;96484.56;29396;246;63009;-56
2023/04/11 00:03:05;;;;;;;0.50;0.50;;;;;;;11.99;52.18;96476.41;29396;216;63005;-56
2023/04/11 00:03:37;;;;;;;0.50;0.50;;;;;;;11.97;52.67;96478.66;29396;385;63017;-56
2023/04/11 00:04:10;;;;;;;0.50;0.50;;;;;;;11.95;52.01;96472.72;29395;431;64009;-56
2023/04/11 00:04:41;;;;;;;0.50;0.50;;;;;;;11.97;53.14;96472.41;29396;304;63009;-56
2023/04/11 00:05:16;;;;;;;0.50;0.50;;;;;;;11.95;52.56;96474.63;29396;211;63004;-56
2023/04/11 00:05:47;;;;;;;0.50;0.50;;;;;;;11.95;52.18;96480.06;29396;196;63009;-56
2023/04/11 00:06:19;;;;;;;0.50;0.50;;;;;;;11.99;52.28;96460.09;29396;280;63004;-68
2023/04/11 00:06:50;;;;;;;0.50;0.50;;;;;;;12.06;52.14;96459.66;29396;300;63009;-56
2023/04/11 00:07:22;;;;;;;0.50;0.50;;;;;;;12.12;52.35;96460.34;29396;199;63008;-55
2023/04/11 00:07:53;;;;;;;0.50;0.50;;;;;;;12.17;51.96;96454.72;29396;250;63008;-56
2023/04/11 00:08:24;;;;;;;0.50;0.50;;;;;;;12.16;51.71;96453.12;29396;422;63005;-56
2023/04/11 00:08:55;;;;;;;0.50;0.50;;;;;;;12.17;51.79;96450.09;29396;262;63009;-56
2023/04/11 00:09:27;;;;;;;0.50;0.50;;;;;;;12.16;52.16;96443.06;29395;198;64009;-55
2023/04/11 00:09:58;;;;;;;0.50;0.50;;;;;;;12.17;52.14;96439.22;29396;471;63014;-57
2023/04/11 00:10:29;;;;;;;0.50;0.50;;;;;;;12.19;52.63;96452.50;29396;424;63005;-56
2023/04/11 00:11:02;;;;;;;0.50;0.50;;;;;;;12.18;52.19;96437.28;29396;220;63009;-56
2023/04/11 00:11:33;;;;;;;0.50;0.50;;;;;;;12.22;51.91;96435.56;29397;245;63004;-56
2023/04/11 00:12:05;;;;;;;0.50;0.50;;;;;;;12.26;51.97;96436.53;29396;395;63009;-55
2023/04/11 00:12:37;;;;;;;0.50;0.50;;;;;;;12.28;51.78;96435.09;29396;248;63004;-55
2023/04/11 00:13:09;;;;;;;0.50;0.50;;;;;;;12.27;51.74;96432.69;29396;258;63009;-56
2023/04/11 00:13:41;;;;;;;0.50;0.50;;;;;;;12.25;51.88;96424.84;29396;196;63004;-55
2023/04/11 00:14:14;;;;;;;0.50;0.50;;;;;;;12.23;51.68;96426.28;29396;248;63008;-56
2023/04/11 00:14:47;;;;;;;0.40;0.40;;;;;;;12.21;52.03;96423.88;29395;250;64008;-60
2023/04/11 00:15:22;;;;;;;0.50;0.50;;;;;;;12.20;51.94;96424.19;29396;309;63008;-55
2023/04/11 00:15:54;;;;;;;0.50;0.50;;;;;;;12.20;52.21;96405.16;29396;272;63005;-55
2023/04/11 00:16:25;;;;;;;0.50;0.50;;;;;;;12.19;52.09;96420.66;29396;199;63009;-57
2023/04/11 00:16:59;;;;;;;0.50;0.50;;;;;;;12.18;52.80;96404.66;29396;390;63005;-56
2023/04/11 00:17:31;;;;;;;0.50;0.50;;;;;;;12.22;52.41;96400.19;29396;398;63009;-55
2023/04/11 00:18:02;;;;;;;0.50;0.50;;;;;;;12.25;52.23;96402.28;29396;207;63005;-56
2023/04/11 00:18:36;;;;;;;0.50;0.50;;;;;;;12.24;51.81;96400.69;29396;210;63017;-56
2023/04/11 00:19:11;;;;;;;0.50;0.50;;;;;;;12.24;52.08;96396.06;29395;235;64009;-57
2023/04/11 00:19:44;;;;;;;0.50;0.50;;;;;;;12.28;52.18;96396.22;29396;216;63009;-55
2023/04/11 00:20:16;;;;;;;0.50;0.50;;;;;;;12.29;52.09;96390.47;29396;228;63004;-64
2023/04/11 00:20:47;;;;;;;0.50;0.50;;;;;;;12.31;51.83;96398.31;29396;196;63009;-57
2023/04/11 00:21:18;;;;;;;0.50;0.50;;;;;;;12.29;52.39;96392.38;29396;227;63004;-56
2023/04/11 00:21:51;;;;;;;0.50;0.50;;;;;;;12.26;51.91;96395.72;29396;369;63008;-56
2023/04/11 00:22:23;;;;;;;0.50;0.50;;;;;;;12.24;51.78;96395.25;29396;215;63005;-59
2023/04/11 00:22:54;;;;;;;0.50;0.50;;;;;;;12.28;52.08;96402.47;29396;424;63009;-57
2023/04/11 00:23:25;;;;;;;0.50;0.50;;;;;;;12.34;51.81;96397.69;29396;219;63005;-55
2023/04/11 00:23:56;;;;;;;0.50;0.50;;;;;;;12.35;51.84;96399.28;29396;198;63018;-55
2023/04/11 00:24:28;;;;;;;0.50;0.50;;;;;;;12.35;51.68;96402.00;29395;233;64009;-55
2023/04/11 00:24:59;;;;;;;0.95;0.95;;;;;;;12.43;51.92;96403.97;29396;261;63009;-54
2023/04/11 00:25:31;;;;;;;0.50;0.50;;;;;;;12.43;51.72;96398.53;29396;220;63005;-54
2023/04/11 00:26:04;;;;;;;0.50;0.50;;;;;;;12.42;51.46;96402.34;29396;198;63009;-56
2023/04/11 00:26:35;;;;;;;0.50;0.50;;;;;;;12.41;52.19;96392.59;29396;203;63004;-55
2023/04/11 00:27:07;;;;;;;0.50;0.50;;;;;;;12.44;51.77;96402.84;29396;197;63009;-55
2023/04/11 00:27:38;;;;;;;0.68;0.68;;;;;;;12.50;51.88;96404.28;29396;212;63004;-57
2023/04/11 00:28:09;;;;;;;0.50;0.50;;;;;;;12.59;51.62;96407.03;29396;362;63024;-56
2023/04/11 00:28:41;;;;;;;0.50;0.50;;;;;;;12.57;51.97;96393.72;29396;221;63004;-57
2023/04/11 00:29:14;;;;;;;0.60;0.60;;;;;;;12.57;51.86;96407.34;29396;286;63008;-55
2023/04/11 00:29:46;;;;;;;0.50;0.50;;;;;;;12.59;51.71;96405.09;29395;314;64008;-53
2023/04/11 00:30:17;;;;;;;0.50;0.50;;;;;;;12.58;51.54;96395.34;29396;363;63009;-56
2023/04/11 00:30:49;;;;;;;0.50;0.50;;;;;;;12.58;51.53;96400.78;29396;253;63005;-56
2023/04/11 00:31:24;;;;;;;0.50;0.50;;;;;;;12.57;51.49;96399.19;29396;215;63009;-56
2023/04/11 00:31:55;;;;;;;0.50;0.50;;;;;;;12.57;51.50;96401.09;29397;429;63005;-56
2023/04/11 00:32:27;;;;;;;0.50;0.50;;;;;;;12.55;51.67;96400.59;29397;327;63009;-56
2023/04/11 00:32:58;;;;;;;0.50;0.50;;;;;;;12.51;51.46;96395.00;29397;250;63005;-56
2023/04/11 00:33:30;;;;;;;0.50;0.50;;;;;;;12.47;51.49;96391.31;29397;211;63009;-57
2023/04/11 00:34:01;;;;;;;0.50;0.50;;;;;;;12.41;52.09;96389.88;29397;253;63017;-57
2023/04/11 00:34:33;;;;;;;0.50;0.50;;;;;;;12.41;51.74;96395.31;29397;324;63009;-56
2023/04/11 00:35:05;;;;;;;0.50;0.50;;;;;;;12.42;52.15;96386.03;29395;370;64009;-56
2023/04/11 00:35:38;;;;;;;0.50;0.50;;;;;;;12.39;51.76;96398.34;29397;198;63009;-56
2023/04/11 00:36:10;;;;;;;0.50;0.50;;;;;;;12.47;52.06;96382.38;29397;325;63004;-56
2023/04/11 00:36:41;;;;;;;0.50;0.50;;;;;;;12.48;51.60;96379.28;29397;272;63008;-61
2023/04/11 00:37:15;;;;;;;0.50;0.50;;;;;;;12.46;51.57;96378.84;29395;225;63004;-56
2023/04/11 00:37:48;;;;;;;0.50;0.50;;;;;;;12.46;51.80;96376.12;29395;200;63009;-56
2023/04/11 00:38:19;;;;;;;0.50;0.50;;;;;;;12.45;51.79;96382.69;29395;214;63018;-60
2023/04/11 00:38:53;;;;;;;0.50;0.50;;;;;;;12.47;51.86;96372.28;29394;253;64014;-57
2023/04/11 00:39:29;;;;;;;0.50;0.50;;;;;;;12.48;52.16;96379.28;29393;222;64009;-55
2023/04/11 00:40:00;;;;;;;0.50;0.50;;;;;;;12.46;52.07;96381.56;29395;324;63014;-57
2023/04/11 00:40:32;;;;;;;0.50;0.50;;;;;;;12.47;51.95;96383.16;29395;451;63005;-66
2023/04/11 00:41:03;;;;;;;0.50;0.50;;;;;;;12.53;51.75;96387.31;29395;410;63009;-54
2023/04/11 00:41:34;;;;;;;0.50;0.50;;;;;;;12.57;51.82;96387.50;29395;250;63005;-55
2023/04/11 00:42:07;;;;;;;0.50;0.50;;;;;;;12.59;51.36;96390.69;29395;397;63009;-55
2023/04/11 00:42:39;;;;;;;0.50;0.50;;;;;;;12.55;51.42;96390.53;29395;221;63004;-55
2023/04/11 00:43:11;;;;;;;0.50;0.50;;;;;;;12.51;51.69;96395.00;29395;426;63009;-56
2023/04/11 00:43:46;;;;;;;0.50;0.50;;;;;;;12.49;51.35;96402.66;29393;323;64009;-57
2023/04/11 00:44:17;;;;;;;0.50;0.50;;;;;;;12.46;51.49;96400.59;29393;198;64013;-56
2023/04/11 00:44:49;;;;;;;0.50;0.50;;;;;;;12.48;51.62;96401.06;29393;199;64008;-57
2023/04/11 00:45:24;;;;;;;0.50;0.50;;;;;;;12.51;51.30;96405.88;29395;203;63009;-56
2023/04/11 00:45:55;;;;;;;0.70;0.70;;;;;;;12.53;51.66;96408.28;29395;203;63005;-56
2023/04/11 00:46:27;;;;;;;0.43;0.43;;;;;;;12.57;51.34;96401.91;29395;220;63009;-56
2023/04/11 00:47:05;;;;;;;0.50;0.50;;;;;;;12.61;51.36;96391.19;29395;250;63005;-56
2023/04/11 00:47:37;;;;;;;0.50;0.50;;;;;;;12.59;50.97;96391.50;29395;340;63009;-56
2023/04/11 00:48:08;;;;;;;0.50;0.50;;;;;;;12.56;51.51;96392.12;29395;212;63005;-56
2023/04/11 00:48:40;;;;;;;0.50;0.50;;;;;;;12.52;51.55;96393.88;29395;197;63009;-57
2023/04/11 00:49:12;;;;;;;0.50;0.50;;;;;;;12.55;51.55;96385.06;29393;348;64000;-56
2023/04/11 00:49:44;;;;;;;0.50;0.50;;;;;;;12.60;51.44;96382.22;29395;313;63009;-56
2023/04/11 00:50:17;;;;;;;0.50;0.50;;;;;;;12.62;51.54;96379.16;29395;227;63000;-57
2023/04/11 00:50:48;;;;;;;0.50;0.50;;;;;;;12.59;51.24;96386.06;29395;203;63009;-63
2023/04/11 00:51:21;;;;;;;0.50;0.50;;;;;;;12.58;51.54;96375.47;29395;367;63004;-56
2023/04/11 00:51:53;;;;;;;0.50;0.50;;;;;;;12.57;51.50;96379.31;29395;196;63008;-54
2023/04/11 00:52:24;;;;;;;0.75;0.75;;;;;;;12.59;51.16;96375.16;29393;196;64008;-56
2023/04/11 00:52:57;;;;;;;0.57;0.57;;;;;;;12.62;51.26;96379.97;29395;372;63009;-59
2023/04/11 00:53:31;;;;;;;0.50;0.50;;;;;;;12.69;51.20;96372.16;29395;253;63005;-60
2023/04/11 00:54:03;;;;;;;0.50;0.50;;;;;;;12.72;51.20;96373.44;29393;352;64014;-57
2023/04/11 00:54:34;;;;;;;0.50;0.50;;;;;;;12.70;51.20;96379.19;29395;231;63005;-58
2023/04/11 00:55:07;;;;;;;0.50;0.50;;;;;;;12.65;52.29;96378.53;29395;247;63009;-63
2023/04/11 00:55:39;;;;;;;0.50;0.50;;;;;;;12.61;51.78;96370.22;29394;215;64005;-57
2023/04/11 00:56:11;;;;;;;0.50;0.50;;;;;;;12.57;52.10;96371.97;29395;223;63022;-55
2023/04/11 00:56:43;;;;;;;0.50;0.50;;;;;;;12.55;51.93;96371.47;29395;277;63005;-55
2023/04/11 00:57:15;;;;;;;0.50;0.50;;;;;;;12.55;51.87;96363.31;29395;290;63009;-60
2023/04/11 00:57:47;;;;;;;0.50;0.50;;;;;;;12.56;52.30;96373.06;29394;212;64004;-55
2023/04/11 00:58:19;;;;;;;0.50;0.50;;;;;;;12.55;52.48;96378.84;29393;202;64013;-56
2023/04/11 00:58:51;;;;;;;0.62;0.62;;;;;;;12.57;52.04;96371.16;29395;252;63004;-56
2023/04/11 00:59:22;;;;;;;0.50;0.50;;;;;;;12.57;51.61;96371.97;29395;229;63008;-56
2023/04/11 00:59:54;;;;;;;0.57;0.57;;;;;;;12.63;52.44;96372.63;29393;267;64008;-64
2023/04/11 01:00:26;;;;;;;0.50;0.50;;;;;;;12.69;51.62;96380.31;29395;477;63009;-57
2023/04/11 01:00:58;;;;;;;0.50;0.50;;;;;;;12.72;51.37;96362.53;29395;389;63005;-58
2023/04/11 01:01:29;;;;;;;0.50;0.50;;;;;;;12.68;51.35;96373.25;29393;274;64014;-54
2023/04/11 01:02:00;;;;;;;0.45;0.45;;;;;;;12.66;51.70;96389.13;29395;219;63005;-57
2023/04/11 01:02:32;;;;;;;0.50;0.50;;;;;;;12.63;52.46;96376.12;29393;236;64013;-56
2023/04/11 01:03:03;;;;;;;0.50;0.50;;;;;;;12.59;51.99;96369.72;29395;197;63010;-56
2023/04/11 01:03:37;;;;;;;0.50;0.50;;;;;;;12.56;52.13;96375.81;29395;333;63009;-56
2023/04/11 01:04:09;;;;;;;0.50;0.50;;;;;;;12.50;52.48;96379.78;29395;260;63005;-56
2023/04/11 01:04:40;;;;;;;0.50;0.50;;;;;;;12.48;52.42;96378.50;29393;263;64013;-55
2023/04/11 01:05:13;;;;;;;0.50;0.50;;;;;;;12.46;52.24;96386.19;29395;251;63004;-55
2023/04/11 01:05:47;;;;;;;0.50;0.50;;;;;;;12.46;52.23;96373.41;29395;239;63009;-56
2023/04/11 01:06:21;;;;;;;0.65;0.65;;;;;;;12.50;52.41;96382.50;29395;278;63004;-56
2023/04/11 01:07:04;;;;;;;0.50;0.50;;;;;;;12.52;52.22;96374.81;29393;264;64013;-57
2023/04/11 01:07:37;;;;;;;0.50;0.50;;;;;;;12.51;52.41;96377.88;29395;363;63004;-56
2023/04/11 01:08:09;;;;;;;0.50;0.50;;;;;;;12.49;52.67;96375.47;29395;268;63009;-55
2023/04/11 01:08:42;;;;;;;0.50;0.50;;;;;;;12.45;52.83;96379.97;29395;394;63009;-55
2023/04/11 01:09:13;;;;;;;0.50;0.50;;;;;;;12.46;52.35;96376.12;29395;213;63009;-56
2023/04/11 01:09:46;;;;;;;0.50;0.50;;;;;;;12.54;52.70;96377.22;29395;196;63005;-56
2023/04/11 01:10:18;;;;;;;0.50;0.50;;;;;;;12.58;52.94;96378.19;29395;241;63009;-57
2023/04/11 01:10:49;;;;;;;0.50;0.50;;;;;;;12.55;53.04;96382.34;29395;246;63005;-60
2023/04/11 01:11:21;;;;;;;0.50;0.50;;;;;;;12.52;53.47;96380.28;29395;204;63009;-57
2023/04/11 01:11:53;;;;;;;0.50;0.50;;;;;;;12.52;53.19;96388.44;29394;206;64009;-54
2023/04/11 01:12:25;;;;;;;0.55;0.55;;;;;;;12.58;53.05;96387.16;29395;498;63009;-65
2023/04/11 01:12:59;;;;;;;0.50;0.50;;;;;;;12.58;52.60;96387.16;29395;267;63004;-63
2023/04/11 01:13:33;;;;;;;0.50;0.50;;;;;;;12.57;52.55;96388.28;29395;239;63008;-55
2023/04/11 01:14:05;;;;;;;0.50;0.50;;;;;;;12.57;52.74;96395.66;29395;244;63004;-57
2023/04/11 01:14:37;;;;;;;0.50;0.50;;;;;;;12.51;52.80;96389.56;29395;243;63008;-56
2023/04/11 01:15:09;;;;;;;0.50;0.50;;;;;;;12.50;52.77;96381.69;29395;219;63004;-56
2023/04/11 01:15:41;;;;;;;0.50;0.50;;;;;;;12.54;52.99;96397.09;29395;221;63009;-61
2023/04/11 01:16:13;;;;;;;0.50;0.50;;;;;;;12.62;52.85;96390.06;29395;319;63005;-56
2023/04/11 01:16:47;;;;;;;0.57;0.57;;;;;;;12.62;52.65;96387.34;29394;226;64013;-56
2023/04/11 01:17:20;;;;;;;0.50;0.50;;;;;;;12.62;52.73;96390.06;29395;208;63018;-58
2023/04/11 01:17:54;;;;;;;0.50;0.50;;;;;;;12.60;52.51;96387.66;29395;198;63009;-56
2023/04/11 01:18:28;;;;;;;0.50;0.50;;;;;;;12.59;52.76;96386.06;29395;222;63013;-57
2023/04/11 01:19:00;;;;;;;0.50;0.50;;;;;;;12.55;53.02;96398.69;29395;461;63018;-55
2023/04/11 01:19:33;;;;;;;0.50;0.50;;;;;;;12.53;53.18;96391.97;29395;307;63004;-59
2023/04/11 01:20:06;;;;;;;0.50;0.50;;;;;;;12.52;52.91;96383.00;29395;421;63009;-56
2023/04/11 01:20:38;;;;;;;0.50;0.50;;;;;;;12.50;53.24;96392.59;29395;202;63004;-59
2023/04/11 01:21:09;;;;;;;0.50;0.50;;;;;;;12.49;53.37;96391.78;29395;269;63008;-62
2023/04/11 01:21:41;;;;;;;0.50;0.50;;;;;;;12.45;55.22;96401.72;29396;196;63004;-55
2023/04/11 01:22:16;;;;;;;0.50;0.50;;;;;;;12.41;54.60;96400.75;29394;301;64006;-55
2023/04/11 01:22:48;;;;;;;0.50;0.50;;;;;;;12.39;54.10;96397.53;29395;198;63005;-56
2023/04/11 01:23:24;;;;;;;0.50;0.50;;;;;;;12.37;54.82;96399.78;29395;332;63009;-55
2023/04/11 01:23:57;;;;;;;0.50;0.50;;;;;;;12.39;53.91;96408.44;29394;206;64009;-59
2023/04/11 01:24:28;;;;;;;0.60;0.60;;;;;;;12.45;53.77;96401.72;29395;308;63009;-57
2023/04/11 01:25:00;;;;;;;0.60;0.60;;;;;;;12.50;53.56;96389.88;29394;425;64009;-56
2023/04/11 01:25:32;;;;;;;0.50;0.50;;;;;;;12.47;53.47;96387.81;29395;234;63009;-56
2023/04/11 01:26:06;;;;;;;0.50;0.50;;;;;;;12.43;53.71;96389.56;29395;208;63005;-56
2023/04/11 01:26:37;;;;;;;0.50;0.50;;;;;;;12.44;53.50;96396.59;29394;471;64013;-56
2023/04/11 01:27:09;;;;;;;0.50;0.50;;;;;;;12.46;53.66;96392.44;29395;246;63004;-55
2023/04/11 01:27:42;;;;;;;0.50;0.50;;;;;;;12.51;53.24;96384.09;29394;343;64013;-59
2023/04/11 01:28:13;;;;;;;0.50;0.50;;;;;;;12.57;53.17;96392.94;29394;440;64004;-56
2023/04/11 01:28:45;;;;;;;0.60;0.60;;;;;;;12.59;53.15;96386.06;29395;520;63008;-57
2023/04/11 01:29:16;;;;;;;0.70;0.70;;;;;;;12.58;53.96;96389.88;29395;273;63004;-55
2023/04/11 01:29:47;;;;;;;0.50;0.50;;;;;;;12.58;53.66;96384.44;29395;214;63027;-62
2023/04/11 01:30:18;;;;;;;0.50;0.50;;;;;;;12.60;53.52;96393.09;29395;206;63005;-56
2023/04/11 01:30:50;;;;;;;0.50;0.50;;;;;;;12.59;53.18;96402.38;29395;218;63009;-64
2023/04/11 01:31:21;;;;;;;0.50;0.50;;;;;;;12.58;53.13;96400.78;29395;267;63005;-55
2023/04/11 01:31:55;;;;;;;0.50;0.50;;;;;;;12.62;53.70;96420.00;29394;205;64013;-56
2023/04/11 01:32:27;;;;;;;0.45;0.45;;;;;;;12.64;55.00;96409.59;29395;290;63005;-55
2023/04/11 01:33:00;;;;;;;0.50;0.50;;;;;;;12.63;54.84;96425.13;29395;266;63009;-56
2023/04/11 01:33:31;;;;;;;0.50;0.50;;;;;;;12.58;55.27;96428.00;29395;268;63005;-56
2023/04/11 01:34:04;;;;;;;0.50;0.50;;;;;;;12.60;56.02;96436.66;29395;288;63009;-57
2023/04/11 01:34:38;;;;;;;0.50;0.50;;;;;;;12.56;56.14;96424.78;29395;255;63015;-57
2023/04/11 01:35:13;;;;;;;0.50;0.50;;;;;;;12.52;55.79;96434.69;29395;263;63009;-56
2023/04/11 01:35:44;;;;;;;0.50;0.50;;;;;;;12.53;56.45;96430.06;29395;331;63004;-57
2023/04/11 01:36:15;;;;;;;0.50;0.50;;;;;;;12.52;56.94;96436.63;29395;318;63008;-55
2023/04/11 01:36:47;;;;;;;0.50;0.50;;;;;;;12.45;58.28;96439.81;29394;329;64008;-57
2023/04/11 01:37:18;;;;;;;0.50;0.50;;;;;;;12.39;58.21;96457.41;29395;227;63009;-56
2023/04/11 01:37:50;;;;;;;0.47;0.47;;;;;;;12.34;59.51;96443.94;29395;372;63005;-56
2023/04/11 01:38:21;;;;;;;0.50;0.50;;;;;;;12.30;58.34;96442.97;29395;338;63018;-57
2023/04/11 01:38:53;;;;;;;0.50;0.50;;;;;;;12.25;59.97;96445.81;29395;196;63009;-57
2023/04/11 01:39:24;;;;;;;0.50;0.50;;;;;;;12.20;58.70;96437.78;29395;323;63009;-57
2023/04/11 01:39:55;;;;;;;0.50;0.50;;;;;;;12.17;58.63;96436.50;29395;202;63005;-57
2023/04/11 01:40:28;;;;;;;0.50;0.50;;;;;;;12.15;58.25;96448.81;29395;241;63009;-57
2023/04/11 01:41:00;;;;;;;0.50;0.50;;;;;;;12.19;59.20;96436.19;29395;199;63005;-56
2023/04/11 01:41:34;;;;;;;0.50;0.50;;;;;;;12.16;59.55;96436.81;29394;214;64013;-56
2023/04/11 01:42:07;;;;;;;0.50;0.50;;;;;;;12.16;59.57;96423.22;29394;236;64001;-57
2023/04/11 01:42:39;;;;;;;0.50;0.50;;;;;;;12.11;59.02;96424.19;29395;209;63009;-57
2023/04/11 01:43:10;;;;;;;0.50;0.50;;;;;;;12.05;58.90;96418.06;29395;286;63011;-57
2023/04/11 01:43:43;;;;;;;0.40;0.40;;;;;;;12.00;58.76;96420.94;29395;336;63009;-57
2023/04/11 01:44:15;;;;;;;0.50;0.50;;;;;;;11.95;59.01;96421.06;29395;325;63004;-56
2023/04/11 01:44:47;;;;;;;0.50;0.50;;;;;;;11.93;59.87;96427.91;29395;316;63009;-56
2023/04/11 01:45:19;;;;;;;0.50;0.50;;;;;;;11.94;59.85;96424.88;29395;364;63015;-56
2023/04/11 01:45:52;;;;;;;0.50;0.50;;;;;;;11.91;60.20;96425.50;29395;196;63009;-56
2023/04/11 01:46:24;;;;;;;0.50;0.50;;;;;;;11.91;60.18;96425.50;29395;454;63005;-56
2023/04/11 01:46:55;;;;;;;0.50;0.50;;;;;;;11.94;60.37;96418.66;29394;441;64009;-56
2023/04/11 01:47:27;;;;;;;0.50;0.50;;;;;;;11.92;60.92;96429.84;29394;309;64009;-56
2023/04/11 01:47:59;;;;;;;0.50;0.50;;;;;;;11.91;60.43;96419.28;29395;228;63009;-55
2023/04/11 01:48:33;;;;;;;0.50;0.50;;;;;;;11.91;61.05;96425.50;29395;479;63009;-56
2023/04/11 01:49:06;;;;;;;0.50;0.50;;;;;;;11.92;61.06;96421.69;29395;240;63009;-56
2023/04/11 01:49:37;;;;;;;0.50;0.50;;;;;;;11.97;60.90;96421.53;29395;238;63018;-55
2023/04/11 01:50:10;;;;;;;0.40;0.40;;;;;;;11.94;60.76;96424.88;29395;237;63009;-56
2023/04/11 01:50:42;;;;;;;0.47;0.47;;;;;;;11.92;61.16;96432.56;29395;208;63012;-55
2023/04/11 01:51:13;;;;;;;0.50;0.50;;;;;;;11.91;60.84;96430.16;29395;220;63009;-56
2023/04/11 01:51:44;;;;;;;0.50;0.50;;;;;;;11.86;61.80;96444.66;29395;213;63004;-56
2023/04/11 01:52:16;;;;;;;0.50;0.50;;;;;;;11.82;61.08;96440.97;29395;201;63009;-56
2023/04/11 01:52:48;;;;;;;0.50;0.50;;;;;;;11.79;61.28;96430.72;29394;246;64005;-56
2023/04/11 01:53:19;;;;;;;0.60;0.60;;;;;;;11.87;61.47;96434.59;29395;214;63009;-55
2023/04/11 01:53:50;;;;;;;0.43;0.43;;;;;;;11.85;61.88;96437.62;29395;200;63005;-57
2023/04/11 01:54:22;;;;;;;0.60;0.60;;;;;;;11.82;61.84;96432.00;29395;207;63017;-54
2023/04/11 01:54:53;;;;;;;0.50;0.50;;;;;;;11.85;61.59;96432.19;29395;213;63005;-56
2023/04/11 01:55:25;;;;;;;0.50;0.50;;;;;;;11.89;61.47;96437.81;29395;419;63009;-53
2023/04/11 01:55:59;;;;;;;0.50;0.50;;;;;;;11.90;61.83;96437.50;29395;267;63005;-56
2023/04/11 01:56:33;;;;;;;0.50;0.50;;;;;;;11.86;61.42;96439.22;29395;436;63013;-56
2023/04/11 01:57:05;;;;;;;1.40;1.40;;;;;;;11.81;61.75;96435.84;29395;202;63004;-56
2023/04/11 01:57:36;;;;;;;79.30;12.75;;;;;;;11.75;62.72;96443.31;29385;328;65009;-56
2023/04/11 01:58:07;;;;;;;0.40;0.40;;;;;;;11.70;62.28;96440.72;29394;373;64009;-65
2023/04/11 01:58:40;;;;;;;0.50;0.50;;;;;;;11.77;62.73;96441.13;29395;252;63009;-60
2023/04/11 01:59:13;;;;;;;0.50;0.50;;;;;;;11.78;62.66;96448.16;29395;211;63004;-54
2023/04/11 01:59:44;;;;;;;0.60;0.60;;;;;;;11.82;62.33;96442.88;29395;459;63009;-56
2023/04/11 02:00:16;;;;;;;0.50;0.50;;;;;;;11.81;62.50;96442.06;29395;220;63007;-56
2023/04/11 02:00:47;;;;;;;0.50;0.50;;;;;;;11.76;62.25;96434.06;29395;255;63017;-57
2023/04/11 02:01:20;;;;;;;0.50;0.50;;;;;;;11.78;62.44;96436.50;29395;255;63005;-54
2023/04/11 02:01:54;;;;;;;0.50;0.50;;;;;;;11.74;62.39;96439.00;29395;258;63026;-56
2023/04/11 02:02:26;;;;;;;0.50;0.50;;;;;;;11.76;62.83;96439.50;29395;260;63005;-56
2023/04/11 02:02:57;;;;;;;0.50;0.50;;;;;;;11.71;63.53;96442.31;29395;203;63009;-64
2023/04/11 02:03:28;;;;;;;0.50;0.50;;;;;;;11.64;64.77;96452.84;29394;242;64009;-57
2023/04/11 02:04:00;;;;;;;0.50;0.50;;;;;;;11.59;63.48;96444.81;29395;250;63009;-55
2023/04/11 02:04:32;;;;;;;0.50;0.50;;;;;;;11.58;63.80;96448.63;29395;245;63004;-57
2023/04/11 02:05:04;;;;;;;0.50;0.50;;;;;;;11.56;64.43;96459.00;29395;222;63009;-55
2023/04/11 02:05:35;;;;;;;0.50;0.50;;;;;;;11.57;64.08;96455.19;29395;294;63004;-57
2023/04/11 02:06:07;;;;;;;0.50;0.50;;;;;;;11.59;64.29;96452.94;29395;196;63009;-55
2023/04/11 02:06:39;;;;;;;0.50;0.50;;;;;;;11.58;64.23;96454.06;29395;300;63004;-56
2023/04/11 02:07:11;;;;;;;0.50;0.50;;;;;;;11.54;63.90;96455.78;29395;212;63008;-56
2023/04/11 02:07:43;;;;;;;0.50;0.50;;;;;;;11.56;64.28;96459.00;29395;207;63005;-56
2023/04/11 02:08:15;;;;;;;0.50;0.50;;;;;;;11.54;64.21;96463.94;29395;228;63027;-56
2023/04/11 02:08:46;;;;;;;0.50;0.50;;;;;;;11.54;64.71;96459.31;29393;340;64009;-57
2023/04/11 02:09:17;;;;;;;0.50;0.50;;;;;;;11.50;64.69;96469.19;29394;241;64009;-56
2023/04/11 02:09:48;;;;;;;0.50;0.50;;;;;;;11.52;65.03;96466.97;29395;271;63005;-55
2023/04/11 02:10:19;;;;;;;0.40;0.40;;;;;;;11.56;66.06;96465.25;29395;261;63009;-55
2023/04/11 02:10:51;;;;;;;0.50;0.50;;;;;;;11.60;66.25;96465.44;29395;347;63005;-56
2023/04/11 02:11:22;;;;;;;0.50;0.50;;;;;;;11.59;65.95;96467.34;29395;202;63009;-56
2023/04/11 02:11:53;;;;;;;0.50;0.50;;;;;;;11.61;67.05;96469.75;29395;271;63004;-61
2023/04/11 02:12:24;;;;;;;0.50;0.50;;;;;;;11.63;66.70;96464.81;29395;198;63009;-59
2023/04/11 02:12:57;;;;;;;0.60;0.60;;;;;;;11.63;67.38;96472.97;29395;194;63004;-55
2023/04/11 02:13:29;;;;;;;0.50;0.50;;;;;;;11.58;67.35;96483.94;29395;197;63009;-56
2023/04/11 02:14:01;;;;;;;0.50;0.50;;;;;;;11.49;67.96;96488.50;29394;247;64008;-55
2023/04/11 02:14:41;;;;;;;0.50;0.50;;;;;;;11.38;71.48;96494.22;29395;216;63008;-56
2023/04/11 02:15:13;;;;;;;0.50;0.50;;;;;;;11.30;70.03;96486.78;29417;229;63005;-55
2023/04/11 02:15:44;;;;;;;0.50;0.50;;;;;;;11.27;70.56;96492.03;29395;214;63009;-55
2023/04/11 02:16:16;;;;;;;0.50;0.50;;;;;;;11.28;71.08;96489.00;29395;243;63008;-56
2023/04/11 02:16:55;;;;;;;0.50;0.50;;;;;;;11.27;71.50;96486.59;29395;207;63009;-55
2023/04/11 02:17:29;;;;;;;0.50;0.50;;;;;;;11.27;72.14;96483.88;29395;196;63005;-55
2023/04/11 02:18:01;;;;;;;0.50;0.50;;;;;;;11.23;72.75;96491.03;29395;209;63009;-57
2023/04/11 02:18:33;;;;;;;0.50;0.50;;;;;;;11.17;73.49;96481.38;29393;244;64009;-58
2023/04/11 02:19:05;;;;;;;0.50;0.50;;;;;;;11.14;73.13;96477.38;29395;202;63012;-56
2023/04/11 02:19:37;;;;;;;0.40;0.40;;;;;;;11.06;77.39;96487.06;29395;233;63004;-55
2023/04/11 02:20:10;;;;;;;0.50;0.50;;;;;;;10.96;76.05;96491.91;29395;238;63023;-56
2023/04/11 02:20:41;;;;;;;0.50;0.50;;;;;;;10.88;74.95;96489.91;29395;209;63004;-55
2023/04/11 02:21:13;;;;;;;0.50;0.50;;;;;;;10.82;76.87;96480.25;29395;224;63008;-56
2023/04/11 02:21:45;;;;;;;0.50;0.50;;;;;;;10.78;76.30;96490.09;29395;236;63004;-56
2023/04/11 02:22:16;;;;;;;0.50;0.50;;;;;;;10.73;75.96;96483.72;29395;206;63008;-63
2023/04/11 02:22:48;;;;;;;0.50;0.50;;;;;;;10.72;76.02;96492.97;29395;215;63005;-56
2023/04/11 02:23:19;;;;;;;0.50;0.50;;;;;;;10.76;76.56;96495.84;29395;197;63009;-58
2023/04/11 02:23:50;;;;;;;0.50;0.50;;;;;;;10.79;77.09;96491.72;29394;208;64009;-56
2023/04/11 02:24:21;;;;;;;0.50;0.50;;;;;;;10.80;76.86;96493.31;29395;220;63009;-54
2023/04/11 02:24:53;;;;;;;0.50;0.50;;;;;;;10.81;77.38;96492.22;29395;237;63005;-55
2023/04/11 02:25:25;;;;;;;0.50;0.50;;;;;;;10.77;77.29;96497.44;29395;272;63009;-56
2023/04/11 02:25:57;;;;;;;0.50;0.50;;;;;;;10.81;78.38;96484.06;29395;202;63004;-55
2023/04/11 02:26:28;;;;;;;0.50;0.50;;;;;;;10.77;77.93;96502.87;29395;224;63009;-58
2023/04/11 02:27:00;;;;;;;0.50;0.50;;;;;;;10.79;78.50;96500.66;29395;223;63004;-54
2023/04/11 02:27:33;;;;;;;0.50;0.50;;;;;;;10.73;78.46;96505.41;29395;253;63009;-54
2023/04/11 02:28:05;;;;;;;0.50;0.50;;;;;;;10.72;79.31;96509.25;29395;261;63004;-58
2023/04/11 02:28:36;;;;;;;0.50;0.50;;;;;;;10.73;79.35;96505.41;29395;254;63008;-54
2023/04/11 02:29:07;;;;;;;0.50;0.50;;;;;;;10.71;79.37;96504.91;29394;219;64009;-54
2023/04/11 02:29:39;;;;;;;0.50;0.50;;;;;;;10.75;79.62;96514.03;29395;277;63009;-56
2023/04/11 02:30:11;;;;;;;0.50;0.50;;;;;;;10.78;79.69;96519.97;29395;202;63005;-58
2023/04/11 02:30:42;;;;;;;0.50;0.50;;;;;;;10.75;79.38;96519.47;29395;203;63009;-57
2023/04/11 02:31:13;;;;;;;1.65;1.35;;;;;;;10.72;79.29;96522.00;29395;203;63005;-55
2023/04/11 02:31:48;;;;;;;0.50;0.50;;;;;;;10.65;79.53;96522.41;29395;203;63009;-56
2023/04/11 02:32:23;;;;;;;0.50;0.50;;;;;;;10.55;79.70;96521.78;29395;206;63005;-56
2023/04/11 02:32:54;;;;;;;0.50;0.50;;;;;;;10.52;80.36;96515.06;29395;225;63009;-54
2023/04/11 02:33:25;;;;;;;0.55;0.55;;;;;;;10.52;79.83;96515.06;29394;212;64004;-61